createdAt,value
2016-06-12T00:00:44.264Z,16.65
2016-06-12T00:01:44.142Z,16.58
2016-06-12T00:02:44.332Z,16.6
2016-06-12T00:03:44.367Z,16.64
2016-06-12T00:04:44.416Z,16.57
2016-06-12T00:05:44.451Z,16.64
2016-06-12T00:06:44.486Z,16.57
2016-06-12T00:07:44.520Z,16.56
2016-06-12T00:08:44.595Z,16.5
2016-06-12T00:09:44.668Z,16.6
2016-06-12T00:10:44.756Z,16.6
2016-06-12T00:11:44.813Z,16.57
2016-06-12T00:12:44.885Z,16.57
2016-06-12T00:13:44.941Z,16.51
2016-06-12T00:14:44.989Z,16.5
2016-06-12T00:15:45.053Z,16.51
2016-06-12T00:16:45.101Z,16.56
2016-06-12T00:17:45.149Z,16.57
2016-06-12T00:18:45.207Z,16.56
2016-06-12T00:19:45.246Z,16.57
2016-06-12T00:20:45.332Z,16.53
2016-06-12T00:21:45.325Z,16.47
2016-06-12T00:22:45.364Z,16.46
2016-06-12T00:23:45.401Z,16.38
2016-06-12T00:24:45.437Z,16.35
2016-06-12T00:25:45.474Z,16.35
2016-06-12T00:26:45.525Z,16.43
2016-06-12T00:27:45.562Z,16.33
2016-06-12T00:28:45.597Z,16.38
2016-06-12T00:29:45.632Z,16.36
2016-06-12T00:30:45.666Z,16.36
2016-06-12T00:31:45.717Z,16.33
2016-06-12T00:32:45.752Z,16.38
2016-06-12T00:33:45.787Z,16.39
2016-06-12T00:34:45.743Z,16.41
2016-06-12T00:35:46.465Z,16.38
2016-06-12T00:36:45.906Z,16.33
2016-06-12T00:37:45.925Z,16.2
2016-06-12T00:38:45.975Z,16.23
2016-06-12T00:39:46.010Z,16.28
2016-06-12T00:40:46.043Z,16.23
2016-06-12T00:41:46.078Z,16.2
2016-06-12T00:42:46.112Z,16.24
2016-06-12T00:43:46.163Z,16.26
2016-06-12T00:44:46.197Z,16.32
2016-06-12T00:45:46.231Z,16.29
2016-06-12T00:46:46.265Z,16.24
2016-06-12T00:47:46.300Z,16.2
2016-06-12T00:48:46.334Z,16.2
2016-06-12T00:49:46.432Z,16.16
2016-06-12T00:50:46.277Z,16.12
2016-06-12T00:51:46.484Z,16.1
2016-06-12T00:52:46.486Z,16.17
2016-06-12T00:53:46.522Z,16.12
2016-06-12T00:54:46.572Z,16.05
2016-06-12T00:55:46.605Z,16.08
2016-06-12T00:56:46.484Z,16.04
2016-06-12T00:57:46.518Z,16.08
2016-06-12T00:58:46.709Z,16.02
2016-06-12T00:59:46.743Z,15.95
2016-06-12T01:00:46.777Z,16.08
2016-06-12T01:01:46.827Z,16.01
2016-06-12T01:02:46.861Z,15.98
2016-06-12T01:03:46.896Z,15.98
2016-06-12T01:04:47.039Z,16.1
2016-06-12T01:05:47.651Z,16.08
2016-06-12T01:06:47.014Z,16.09
2016-06-12T01:07:47.049Z,15.95
2016-06-12T01:08:47.082Z,16.09
2016-06-12T01:09:46.961Z,16.08
2016-06-12T01:10:47.152Z,16.05
2016-06-12T01:11:47.201Z,16.1
2016-06-12T01:12:47.236Z,15.98
2016-06-12T01:13:47.270Z,16.02
2016-06-12T01:14:47.304Z,15.97
2016-06-12T01:15:47.340Z,15.94
2016-06-12T01:16:47.373Z,15.86
2016-06-12T01:17:47.408Z,15.92
2016-06-12T01:18:47.457Z,15.88
2016-06-12T01:19:47.366Z,15.9
2016-06-12T01:20:47.526Z,15.97
2016-06-12T01:21:47.560Z,15.86
2016-06-12T01:22:47.611Z,15.92
2016-06-12T01:23:47.629Z,15.77
2016-06-12T01:24:47.695Z,15.94
2016-06-12T01:25:47.713Z,15.94
2016-06-12T01:26:47.732Z,15.94
2016-06-12T01:27:47.782Z,15.82
2016-06-12T01:28:47.816Z,15.82
2016-06-12T01:29:47.850Z,15.86
2016-06-12T01:30:47.886Z,15.84
2016-06-12T01:31:47.935Z,15.84
2016-06-12T01:32:47.813Z,15.83
2016-06-12T01:33:48.004Z,15.77
2016-06-12T01:34:49.085Z,15.75
2016-06-12T01:35:48.026Z,15.8
2016-06-12T01:36:48.122Z,15.73
2016-06-12T01:37:48.157Z,15.7
2016-06-12T01:38:48.175Z,15.7
2016-06-12T01:39:48.225Z,15.82
2016-06-12T01:40:48.260Z,15.83
2016-06-12T01:41:48.294Z,15.84
2016-06-12T01:42:48.328Z,15.83
2016-06-12T01:43:48.362Z,15.8
2016-06-12T01:44:48.397Z,15.84
2016-06-12T01:45:48.447Z,15.8
2016-06-12T01:46:48.481Z,15.9
2016-06-12T01:47:48.516Z,15.77
2016-06-12T01:48:48.550Z,15.83
2016-06-12T01:49:48.584Z,15.86
2016-06-12T01:50:49.181Z,15.86
2016-06-12T01:51:48.668Z,15.83
2016-06-12T01:52:48.703Z,15.84
2016-06-12T01:53:48.581Z,15.83
2016-06-12T01:54:48.772Z,15.86
2016-06-12T01:55:48.821Z,15.84
2016-06-12T01:56:48.699Z,15.77
2016-06-12T01:57:48.891Z,15.82
2016-06-12T01:58:48.924Z,15.8
2016-06-12T01:59:48.959Z,15.77
2016-06-12T02:00:48.993Z,15.79
2016-06-12T02:01:49.028Z,15.72
2016-06-12T02:02:49.062Z,15.76
2016-06-12T02:03:49.096Z,15.76
2016-06-12T02:04:48.974Z,15.77
2016-06-12T02:05:49.790Z,15.7
2016-06-12T02:06:49.214Z,15.76
2016-06-12T02:07:49.249Z,15.77
2016-06-12T02:08:49.284Z,15.73
2016-06-12T02:09:49.318Z,15.76
2016-06-12T02:10:49.368Z,15.75
2016-06-12T02:11:49.402Z,15.73
2016-06-12T02:12:49.437Z,15.73
2016-06-12T02:13:49.471Z,15.76
2016-06-12T02:14:49.505Z,15.8
2016-06-12T02:15:49.539Z,15.82
2016-06-12T02:16:49.574Z,15.83
2016-06-12T02:17:49.608Z,15.83
2016-06-12T02:18:49.642Z,15.75
2016-06-12T02:19:49.692Z,15.72
2016-06-12T02:20:50.132Z,15.77
2016-06-12T02:21:49.824Z,15.8
2016-06-12T02:22:49.810Z,15.75
2016-06-12T02:23:49.845Z,15.72
2016-06-12T02:24:50.004Z,15.65
2016-06-12T02:25:49.898Z,15.64
2016-06-12T02:26:49.948Z,15.73
2016-06-12T02:27:49.997Z,15.73
2016-06-12T02:28:50.017Z,15.68
2016-06-12T02:29:50.067Z,15.72
2016-06-12T02:30:49.929Z,15.62
2016-06-12T02:31:50.135Z,15.61
2016-06-12T02:32:50.170Z,15.68
2016-06-12T02:33:50.204Z,15.57
2016-06-12T02:34:50.238Z,15.67
2016-06-12T02:35:50.475Z,15.61
2016-06-12T02:36:50.306Z,15.55
2016-06-12T02:37:50.373Z,15.7
2016-06-12T02:38:50.392Z,15.73
2016-06-12T02:39:50.457Z,15.8
2016-06-12T02:40:50.459Z,15.82
2016-06-12T02:41:50.494Z,15.73
2016-06-12T02:42:50.544Z,15.73
2016-06-12T02:43:50.578Z,15.86
2016-06-12T02:44:50.456Z,15.94
2016-06-12T02:45:50.647Z,15.97
2016-06-12T02:46:50.681Z,15.95
2016-06-12T02:47:50.715Z,16.01
2016-06-12T02:48:50.750Z,15.95
2016-06-12T02:49:50.800Z,15.77
2016-06-12T02:50:50.943Z,15.64
2016-06-12T02:51:50.869Z,15.68
2016-06-12T02:52:50.746Z,15.55
2016-06-12T02:53:50.780Z,15.57
2016-06-12T02:54:50.972Z,15.67
2016-06-12T02:55:51.006Z,15.72
2016-06-12T02:56:51.039Z,15.64
2016-06-12T02:57:51.090Z,15.65
2016-06-12T02:58:51.140Z,15.68
2016-06-12T02:59:51.174Z,15.68
2016-06-12T03:00:51.193Z,15.7
2016-06-12T03:01:51.071Z,15.73
2016-06-12T03:02:51.261Z,15.8
2016-06-12T03:03:51.311Z,15.72
2016-06-12T03:04:51.347Z,15.73
2016-06-12T03:05:51.864Z,15.68
2016-06-12T03:06:51.414Z,15.58
2016-06-12T03:07:51.449Z,15.46
2016-06-12T03:08:51.484Z,15.59
2016-06-12T03:09:51.532Z,15.54
2016-06-12T03:10:51.552Z,15.57
2016-06-12T03:11:51.602Z,15.57
2016-06-12T03:12:51.636Z,15.57
2016-06-12T03:13:51.670Z,15.47
2016-06-12T03:14:51.705Z,15.52
2016-06-12T03:15:51.740Z,15.39
2016-06-12T03:16:51.789Z,15.43
2016-06-12T03:17:51.823Z,15.43
2016-06-12T03:18:51.857Z,15.36
2016-06-12T03:19:51.907Z,15.35
2016-06-12T03:20:52.271Z,15.42
2016-06-12T03:21:51.976Z,15.35
2016-06-12T03:22:51.994Z,15.35
2016-06-12T03:23:52.045Z,15.42
2016-06-12T03:24:52.079Z,15.36
2016-06-12T03:25:52.114Z,15.35
2016-06-12T03:26:52.148Z,15.42
2016-06-12T03:27:52.042Z,15.49
2016-06-12T03:28:52.060Z,15.42
2016-06-12T03:29:52.267Z,15.42
2016-06-12T03:30:52.301Z,15.4
2016-06-12T03:31:52.335Z,15.4
2016-06-12T03:32:52.370Z,15.49
2016-06-12T03:33:52.404Z,15.59
2016-06-12T03:34:52.439Z,15.58
2016-06-12T03:35:52.691Z,15.43
2016-06-12T03:36:52.507Z,15.47
2016-06-12T03:37:52.541Z,15.42
2016-06-12T03:38:52.591Z,15.37
2016-06-12T03:39:52.610Z,15.42
2016-06-12T03:40:52.691Z,15.42
2016-06-12T03:41:52.695Z,15.4
2016-06-12T03:42:52.728Z,15.43
2016-06-12T03:43:52.606Z,15.33
2016-06-12T03:44:52.797Z,15.46
2016-06-12T03:45:52.831Z,15.49
2016-06-12T03:46:52.866Z,15.46
2016-06-12T03:47:52.900Z,15.37
2016-06-12T03:48:52.949Z,15.4
2016-06-12T03:49:52.985Z,15.42
2016-06-12T03:50:53.019Z,15.37
2016-06-12T03:51:53.069Z,15.37
2016-06-12T03:52:53.087Z,15.36
2016-06-12T03:53:53.122Z,15.39
2016-06-12T03:54:53.157Z,15.46
2016-06-12T03:55:53.206Z,15.4
2016-06-12T03:56:53.240Z,15.43
2016-06-12T03:57:53.274Z,15.44
2016-06-12T03:58:53.308Z,15.42
2016-06-12T03:59:53.344Z,15.54
2016-06-12T04:00:53.378Z,15.44
2016-06-12T04:01:53.427Z,15.46
2016-06-12T04:02:53.445Z,15.36
2016-06-12T04:03:53.496Z,15.52
2016-06-12T04:04:53.531Z,15.43
2016-06-12T04:05:53.565Z,15.51
2016-06-12T04:06:53.443Z,15.46
2016-06-12T04:07:53.633Z,15.46
2016-06-12T04:08:53.527Z,15.39
2016-06-12T04:09:53.733Z,15.42
2016-06-12T04:10:53.752Z,15.35
2016-06-12T04:11:53.786Z,15.21
2016-06-12T04:12:53.820Z,15.33
2016-06-12T04:13:53.855Z,15.37
2016-06-12T04:14:53.904Z,15.35
2016-06-12T04:15:53.924Z,15.46
2016-06-12T04:16:53.974Z,15.36
2016-06-12T04:17:54.008Z,15.46
2016-06-12T04:18:54.041Z,15.57
2016-06-12T04:19:54.077Z,15.57
2016-06-12T04:20:54.783Z,15.52
2016-06-12T04:21:54.145Z,15.49
2016-06-12T04:22:54.179Z,15.44
2016-06-12T04:23:54.229Z,15.37
2016-06-12T04:24:54.264Z,15.4
2016-06-12T04:25:54.298Z,15.35
2016-06-12T04:26:54.332Z,15.44
2016-06-12T04:27:54.366Z,15.33
2016-06-12T04:28:54.417Z,15.43
2016-06-12T04:29:54.436Z,15.51
2016-06-12T04:30:54.486Z,15.55
2016-06-12T04:31:54.519Z,15.61
2016-06-12T04:32:54.413Z,15.64
2016-06-12T04:33:54.588Z,15.67
2016-06-12T04:34:54.623Z,15.73
2016-06-12T04:35:54.516Z,15.9
2016-06-12T04:36:54.707Z,15.82
2016-06-12T04:37:54.758Z,15.9
2016-06-12T04:38:54.775Z,15.91
2016-06-12T04:39:54.809Z,15.97
2016-06-12T04:40:54.845Z,16.05
2016-06-12T04:41:54.895Z,16.04
2016-06-12T04:42:54.929Z,16.08
2016-06-12T04:43:54.963Z,16.04
2016-06-12T04:44:55.013Z,16.09
2016-06-12T04:45:55.032Z,16.23
2016-06-12T04:46:54.925Z,16.17
2016-06-12T04:47:55.116Z,16.13
2016-06-12T04:48:54.994Z,16.08
2016-06-12T04:49:55.184Z,16.1
2016-06-12T04:50:55.109Z,16.09
2016-06-12T04:51:55.269Z,16.12
2016-06-12T04:52:55.287Z,16.2
2016-06-12T04:53:55.337Z,16.2
2016-06-12T04:54:55.216Z,16.26
2016-06-12T04:55:55.406Z,16.29
2016-06-12T04:56:55.440Z,16.26
2016-06-12T04:57:55.475Z,16.2
2016-06-12T04:58:55.509Z,16.28
2016-06-12T04:59:55.543Z,16.26
2016-06-12T05:00:55.578Z,16.17
2016-06-12T05:01:55.627Z,16.24
2016-06-12T05:02:55.693Z,16.24
2016-06-12T05:03:55.712Z,16.12
2016-06-12T05:04:55.746Z,16.23
2016-06-12T05:05:55.781Z,16.36
2016-06-12T05:06:55.815Z,16.36
2016-06-12T05:07:55.849Z,16.41
2016-06-12T05:08:55.898Z,16.41
2016-06-12T05:09:55.918Z,16.46
2016-06-12T05:10:55.984Z,16.47
2016-06-12T05:11:56.001Z,16.43
2016-06-12T05:12:56.036Z,16.51
2016-06-12T05:13:56.071Z,16.47
2016-06-12T05:14:56.121Z,16.54
2016-06-12T05:15:56.155Z,16.54
2016-06-12T05:16:56.189Z,16.6
2016-06-12T05:17:56.223Z,16.58
2016-06-12T05:18:56.259Z,16.68
2016-06-12T05:19:56.292Z,16.74
2016-06-12T05:20:56.357Z,16.83
2016-06-12T05:21:57.064Z,16.87
2016-06-12T05:22:56.411Z,16.93
2016-06-12T05:23:56.444Z,17.02
2016-06-12T05:24:56.495Z,17.05
2016-06-12T05:25:56.529Z,17.23
2016-06-12T05:26:56.564Z,17.3
2016-06-12T05:27:56.614Z,17.19
2016-06-12T05:28:56.632Z,17.31
2016-06-12T05:29:56.667Z,17.41
2016-06-12T05:30:56.717Z,17.27
2016-06-12T05:31:56.751Z,17.33
2016-06-12T05:32:56.786Z,17.26
2016-06-12T05:33:56.835Z,17.34
2016-06-12T05:34:56.854Z,17.31
2016-06-12T05:35:56.966Z,17.42
2016-06-12T05:36:57.001Z,17.6
2016-06-12T05:37:57.004Z,17.82
2016-06-12T05:38:57.023Z,17.87
2016-06-12T05:39:57.057Z,18.07
2016-06-12T05:40:57.091Z,18.22
2016-06-12T05:41:57.125Z,18.55
2016-06-12T05:42:57.175Z,18.8
2016-06-12T05:43:57.210Z,18.93
2016-06-12T05:44:57.244Z,19.07
2016-06-12T05:45:57.294Z,19.24
2016-06-12T05:46:57.328Z,19.26
2016-06-12T05:47:57.362Z,19.16
2016-06-12T05:48:57.396Z,19.27
2016-06-12T05:49:57.431Z,19.37
2016-06-12T05:50:57.513Z,19.51
2016-06-12T05:51:57.766Z,19.51
2016-06-12T05:52:57.566Z,19.79
2016-06-12T05:53:57.600Z,19.95
2016-06-12T05:54:57.478Z,19.89
2016-06-12T05:55:57.668Z,19.88
2016-06-12T05:56:57.718Z,19.91
2016-06-12T05:57:57.754Z,19.81
2016-06-12T05:58:57.787Z,19.64
2016-06-12T05:59:57.837Z,19.39
2016-06-12T06:00:57.872Z,19.39
2016-06-12T06:01:57.921Z,19.19
2016-06-12T06:02:57.800Z,19.37
2016-06-12T06:03:57.989Z,19.4
2016-06-12T06:04:58.040Z,19.45
2016-06-12T06:05:58.027Z,19.34
2016-06-12T06:06:58.343Z,19.16
2016-06-12T06:07:58.159Z,19.15
2016-06-12T06:08:58.193Z,19.16
2016-06-12T06:09:58.227Z,19.14
2016-06-12T06:10:58.261Z,19.08
2016-06-12T06:11:58.327Z,18.98
2016-06-12T06:12:58.345Z,19
2016-06-12T06:13:58.395Z,19.15
2016-06-12T06:14:58.431Z,19.18
2016-06-12T06:15:58.464Z,19.3
2016-06-12T06:16:58.514Z,19.3
2016-06-12T06:17:58.549Z,19.27
2016-06-12T06:18:58.599Z,19.29
2016-06-12T06:19:58.633Z,19.31
2016-06-12T06:20:58.541Z,19.21
2016-06-12T06:21:58.561Z,19.18
2016-06-12T06:22:58.751Z,19.12
2016-06-12T06:23:58.786Z,19.09
2016-06-12T06:24:58.695Z,18.92
2016-06-12T06:25:58.886Z,18.95
2016-06-12T06:26:58.904Z,18.98
2016-06-12T06:27:58.970Z,18.98
2016-06-12T06:28:58.989Z,18.83
2016-06-12T06:29:59.039Z,19
2016-06-12T06:30:59.073Z,19.04
2016-06-12T06:31:59.107Z,19.19
2016-06-12T06:32:59.157Z,19.3
2016-06-12T06:33:59.207Z,19.54
2016-06-12T06:34:59.241Z,19.89
2016-06-12T06:35:59.932Z,20
2016-06-12T06:36:59.404Z,20.13
2016-06-12T06:37:59.360Z,20
2016-06-12T06:38:59.394Z,19.94
2016-06-12T06:39:59.429Z,20
2016-06-12T06:40:59.479Z,20.29
2016-06-12T06:41:59.513Z,20.55
2016-06-12T06:42:59.548Z,20.92
2016-06-12T06:43:59.612Z,21.05
2016-06-12T06:44:59.632Z,20.9
2016-06-12T06:45:59.682Z,21
2016-06-12T06:46:59.716Z,20.9
2016-06-12T06:47:59.750Z,20.96
2016-06-12T06:48:59.799Z,20.7
2016-06-12T06:49:59.834Z,20.41
2016-06-12T06:50:59.884Z,20.5
2016-06-12T06:51:59.934Z,20.74
2016-06-12T06:52:59.968Z,20.96
2016-06-12T06:54:00.003Z,21.02
2016-06-12T06:55:00.053Z,21.3
2016-06-12T06:56:00.102Z,21.3
2016-06-12T06:57:00.138Z,21.32
2016-06-12T06:58:00.188Z,21.57
2016-06-12T06:59:00.221Z,21.64
2016-06-12T07:00:00.256Z,22.06
2016-06-12T07:01:00.150Z,22.02
2016-06-12T07:02:00.340Z,22.08
2016-06-12T07:03:00.374Z,22
2016-06-12T07:04:00.424Z,21.82
2016-06-12T07:05:00.459Z,21.61
2016-06-12T07:06:00.508Z,21.55
2016-06-12T07:07:01.247Z,21.6
2016-06-12T07:08:00.594Z,21.61
2016-06-12T07:09:00.628Z,21.72
2016-06-12T07:10:00.677Z,21.6
2016-06-12T07:11:00.712Z,21.69
2016-06-12T07:12:00.762Z,21.61
2016-06-12T07:13:00.812Z,21.55
2016-06-12T07:14:00.845Z,21.66
2016-06-12T07:15:00.880Z,21.75
2016-06-12T07:16:00.930Z,21.67
2016-06-12T07:17:00.964Z,21.58
2016-06-12T07:18:01.014Z,21.54
2016-06-12T07:19:01.048Z,21.5
2016-06-12T07:20:01.083Z,21.6
2016-06-12T07:21:01.133Z,21.57
2016-06-12T07:22:01.557Z,21.45
2016-06-12T07:23:01.218Z,21.32
2016-06-12T07:24:01.268Z,21.43
2016-06-12T07:25:01.316Z,21.43
2016-06-12T07:26:01.352Z,21.02
2016-06-12T07:27:01.385Z,21.12
2016-06-12T07:28:01.435Z,21.06
2016-06-12T07:29:01.314Z,21.06
2016-06-12T07:30:01.504Z,21.07
2016-06-12T07:31:01.554Z,20.96
2016-06-12T07:32:01.604Z,21.14
2016-06-12T07:33:01.654Z,21.21
2016-06-12T07:34:01.673Z,21.57
2016-06-12T07:35:01.722Z,21.77
2016-06-12T07:36:01.757Z,21.8
2016-06-12T07:37:02.119Z,21.8
2016-06-12T07:38:01.842Z,21.98
2016-06-12T07:39:01.892Z,21.95
2016-06-12T07:40:01.942Z,22.15
2016-06-12T07:41:01.820Z,22.06
2016-06-12T07:42:02.026Z,22.13
2016-06-12T07:43:02.060Z,22.22
2016-06-12T07:44:02.094Z,22.26
2016-06-12T07:45:02.144Z,22.18
2016-06-12T07:46:02.178Z,22.33
2016-06-12T07:47:02.228Z,22.38
2016-06-12T07:48:02.262Z,22.59
2016-06-12T07:49:02.312Z,22.36
2016-06-12T07:50:02.362Z,22.43
2016-06-12T07:51:02.396Z,22.81
2016-06-12T07:52:02.587Z,23.23
2016-06-12T07:53:02.482Z,23.54
2016-06-12T07:54:02.531Z,23.66
2016-06-12T07:55:02.566Z,23.87
2016-06-12T07:56:02.616Z,23.77
2016-06-12T07:57:02.665Z,23.61
2016-06-12T07:58:02.715Z,23.77
2016-06-12T07:59:02.750Z,23.84
2016-06-12T08:00:02.784Z,23.93
2016-06-12T08:01:02.834Z,23.84
2016-06-12T08:02:02.869Z,23.78
2016-06-12T08:03:02.918Z,23.98
2016-06-12T08:04:02.953Z,23.96
2016-06-12T08:05:03.018Z,24.11
2016-06-12T08:06:03.052Z,24.14
2016-06-12T08:07:03.087Z,23.99
2016-06-12T08:08:03.136Z,23.84
2016-06-12T08:09:03.171Z,23.76
2016-06-12T08:10:03.221Z,23.63
2016-06-12T08:11:03.271Z,23.39
2016-06-12T08:12:03.305Z,23.43
2016-06-12T08:13:03.355Z,23.4
2016-06-12T08:14:03.389Z,23.44
2016-06-12T08:15:03.439Z,23.61
2016-06-12T08:16:03.473Z,23.39
2016-06-12T08:17:03.367Z,23.18
2016-06-12T08:18:03.573Z,23.24
2016-06-12T08:19:03.624Z,23.12
2016-06-12T08:20:03.657Z,23.23
2016-06-12T08:21:03.708Z,22.81
2016-06-12T08:22:04.321Z,22.88
2016-06-12T08:23:03.792Z,23.15
2016-06-12T08:24:03.827Z,23.5
2016-06-12T08:25:03.876Z,24.1
2016-06-12T08:26:03.912Z,24.4
2016-06-12T08:27:03.961Z,24.02
2016-06-12T08:28:04.010Z,24.16
2016-06-12T08:29:04.061Z,24.57
2016-06-12T08:30:04.095Z,24.93
2016-06-12T08:31:04.130Z,25.13
2016-06-12T08:32:04.179Z,25.32
2016-06-12T08:33:04.229Z,25.5
2016-06-12T08:34:04.264Z,25.46
2016-06-12T08:35:04.313Z,25.33
2016-06-12T08:36:04.207Z,25.17
2016-06-12T08:37:05.117Z,25.03
2016-06-12T08:38:04.448Z,25.07
2016-06-12T08:39:04.482Z,25.28
2016-06-12T08:40:04.563Z,24.73
2016-06-12T08:41:04.582Z,24.8
2016-06-12T08:42:04.633Z,24.78
2016-06-12T08:43:04.682Z,25.08
2016-06-12T08:44:04.716Z,25.23
2016-06-12T08:45:04.767Z,24.38
2016-06-12T08:46:04.815Z,24.42
2016-06-12T08:47:04.850Z,24.54
2016-06-12T08:48:04.901Z,24.45
2016-06-12T08:49:04.950Z,24.43
2016-06-12T08:50:05.000Z,24.54
2016-06-12T08:51:05.050Z,24.39
2016-06-12T08:52:05.491Z,24.58
2016-06-12T08:53:05.134Z,24.29
2016-06-12T08:54:05.170Z,24.16
2016-06-12T08:55:05.219Z,24.05
2016-06-12T08:56:05.268Z,24.02
2016-06-12T08:57:05.319Z,24.5
2016-06-12T08:58:05.353Z,24.86
2016-06-12T08:59:05.403Z,24.63
2016-06-12T09:00:05.437Z,24.48
2016-06-12T09:01:05.472Z,24.76
2016-06-12T09:02:05.537Z,24.6
2016-06-12T09:03:05.572Z,24.21
2016-06-12T09:04:06.090Z,24.53
2016-06-12T09:05:05.687Z,24.28
2016-06-12T09:06:05.706Z,23.83
2016-06-12T09:07:05.755Z,24.02
2016-06-12T09:08:05.806Z,23.95
2016-06-12T09:09:05.840Z,23.96
2016-06-12T09:10:05.906Z,24.1
2016-06-12T09:11:05.940Z,23.93
2016-06-12T09:12:05.989Z,24.01
2016-06-12T09:13:06.023Z,24.17
2016-06-12T09:14:06.075Z,24.29
2016-06-12T09:15:06.150Z,24.16
2016-06-12T09:16:06.240Z,23.21
2016-06-12T09:17:06.316Z,23.15
2016-06-12T09:18:06.422Z,23.27
2016-06-12T09:19:06.496Z,23.69
2016-06-12T09:20:06.546Z,23.99
2016-06-12T09:21:06.610Z,24.26
2016-06-12T09:22:07.034Z,24.58
2016-06-12T09:23:06.739Z,24.58
2016-06-12T09:24:06.772Z,24.3
2016-06-12T09:25:06.827Z,24.57
2016-06-12T09:26:06.882Z,24.76
2016-06-12T09:27:06.937Z,25.1
2016-06-12T09:28:07.008Z,25.26
2016-06-12T09:29:07.047Z,25.88
2016-06-12T09:30:07.084Z,26.33
2016-06-12T09:31:07.150Z,26.74
2016-06-12T09:32:07.187Z,27.03
2016-06-12T09:33:07.254Z,26.78
2016-06-12T09:34:07.274Z,26.43
2016-06-12T09:35:07.325Z,26.38
2016-06-12T09:36:07.376Z,26.55
2016-06-12T09:37:07.427Z,26.71
2016-06-12T09:38:07.461Z,26.83
2016-06-12T09:39:07.513Z,26.88
2016-06-12T09:40:07.563Z,26.84
2016-06-12T09:41:07.597Z,26.7
2016-06-12T09:42:07.648Z,26.68
2016-06-12T09:43:07.698Z,26.89
2016-06-12T09:44:07.749Z,26.84
2016-06-12T09:45:07.799Z,27.18
2016-06-12T09:46:07.849Z,27.11
2016-06-12T09:47:07.883Z,27
2016-06-12T09:48:07.933Z,26.84
2016-06-12T09:49:07.983Z,27
2016-06-12T09:50:08.048Z,26.21
2016-06-12T09:51:08.068Z,25.08
2016-06-12T09:52:08.867Z,24.6
2016-06-12T09:53:08.620Z,24.53
2016-06-12T09:54:08.217Z,24.51
2016-06-12T09:55:08.267Z,24.61
2016-06-12T09:56:08.301Z,25.03
2016-06-12T09:57:08.350Z,25.04
2016-06-12T09:58:08.401Z,24.99
2016-06-12T09:59:08.467Z,25.03
2016-06-12T10:00:08.501Z,25.31
2016-06-12T10:01:08.535Z,25.21
2016-06-12T10:02:08.570Z,24.88
2016-06-12T10:03:08.619Z,24.8
2016-06-12T10:04:08.701Z,24.84
2016-06-12T10:05:08.719Z,24.73
2016-06-12T10:06:08.770Z,24.66
2016-06-12T10:07:08.819Z,24.51
2016-06-12T10:08:09.134Z,24.6
2016-06-12T10:09:08.967Z,24.6
2016-06-12T10:10:08.938Z,24.47
2016-06-12T10:11:09.003Z,24.43
2016-06-12T10:12:09.038Z,23.98
2016-06-12T10:13:09.088Z,24.3
2016-06-12T10:14:09.138Z,24.54
2016-06-12T10:15:09.172Z,24.68
2016-06-12T10:16:09.222Z,24.74
2016-06-12T10:17:09.287Z,24.84
2016-06-12T10:18:09.306Z,24.88
2016-06-12T10:19:09.357Z,24.73
2016-06-12T10:20:09.406Z,24.65
2016-06-12T10:21:09.440Z,24.57
2016-06-12T10:22:09.507Z,24.51
2016-06-12T10:23:09.556Z,24.26
2016-06-12T10:24:09.575Z,24.03
2016-06-12T10:25:09.641Z,24.05
2016-06-12T10:26:09.675Z,24.38
2016-06-12T10:27:09.568Z,24.02
2016-06-12T10:28:09.759Z,24.23
2016-06-12T10:29:09.824Z,24.29
2016-06-12T10:30:09.859Z,24.6
2016-06-12T10:31:09.910Z,24.74
2016-06-12T10:32:09.959Z,24.74
2016-06-12T10:33:09.994Z,24.35
2016-06-12T10:34:10.043Z,23.83
2016-06-12T10:35:10.093Z,23.78
2016-06-12T10:36:10.128Z,23.65
2016-06-12T10:37:10.178Z,23.63
2016-06-12T10:38:11.602Z,23.68
2016-06-12T10:39:10.262Z,23.68
2016-06-12T10:40:10.296Z,23.5
2016-06-12T10:41:10.346Z,23.36
2016-06-12T10:42:10.396Z,23.25
2016-06-12T10:43:10.289Z,23.2
2016-06-12T10:44:10.480Z,23.58
2016-06-12T10:45:10.530Z,23.48
2016-06-12T10:46:10.580Z,23.5
2016-06-12T10:47:10.598Z,23.56
2016-06-12T10:48:10.665Z,23.56
2016-06-12T10:49:10.715Z,23.63
2016-06-12T10:50:10.748Z,23.69
2016-06-12T10:51:10.799Z,23.23
2016-06-12T10:52:10.677Z,23.17
2016-06-12T10:53:11.522Z,23.71
2016-06-12T10:54:10.933Z,23.91
2016-06-12T10:55:10.983Z,23.96
2016-06-12T10:56:11.017Z,24.36
2016-06-12T10:57:11.051Z,24.57
2016-06-12T10:58:11.102Z,24.78
2016-06-12T10:59:11.135Z,24.86
2016-06-12T11:00:11.185Z,25.17
2016-06-12T11:01:11.235Z,24.69
2016-06-12T11:02:11.286Z,24.78
2016-06-12T11:03:11.320Z,25.16
2016-06-12T11:04:11.369Z,25.36
2016-06-12T11:05:11.404Z,25.31
2016-06-12T11:06:11.470Z,25.28
2016-06-12T11:07:11.503Z,25.04
2016-06-12T11:08:11.866Z,25.23
2016-06-12T11:09:11.604Z,25.63
2016-06-12T11:10:11.654Z,25.5
2016-06-12T11:11:11.688Z,25.84
2016-06-12T11:12:11.738Z,25.31
2016-06-12T11:13:11.772Z,24.84
2016-06-12T11:14:11.823Z,24.81
2016-06-12T11:15:11.888Z,25.28
2016-06-12T11:16:11.923Z,24.74
2016-06-12T11:17:11.972Z,24.78
2016-06-12T11:18:12.021Z,24.6
2016-06-12T11:19:12.057Z,24.76
2016-06-12T11:20:12.106Z,24.88
2016-06-12T11:21:12.141Z,25.08
2016-06-12T11:22:12.191Z,25.03
2016-06-12T11:23:11.944Z,25.16
2016-06-12T11:24:12.290Z,25.66
2016-06-12T11:25:12.340Z,25.75
2016-06-12T11:26:12.390Z,26.33
2016-06-12T11:27:12.440Z,26.73
2016-06-12T11:28:12.490Z,26.73
2016-06-12T11:29:12.525Z,27
2016-06-12T11:30:12.574Z,27.67
2016-06-12T11:31:12.608Z,27.52
2016-06-12T11:32:12.659Z,27.27
2016-06-12T11:33:12.725Z,27.68
2016-06-12T11:34:12.774Z,28.08
2016-06-12T11:35:12.809Z,27.59
2016-06-12T11:36:12.859Z,27.29
2016-06-12T11:37:12.909Z,26.74
2016-06-12T11:38:13.069Z,26.19
2016-06-12T11:39:13.009Z,26.05
2016-06-12T11:40:13.059Z,26.9
2016-06-12T11:41:13.124Z,28.12
2016-06-12T11:42:13.158Z,28.81
2016-06-12T11:43:13.223Z,28.79
2016-06-12T11:44:13.258Z,29.1
2016-06-12T11:45:13.324Z,27.95
2016-06-12T11:46:13.358Z,28.02
2016-06-12T11:47:13.408Z,28.2
2016-06-12T11:48:13.458Z,28.26
2016-06-12T11:49:13.524Z,27.92
2016-06-12T11:50:13.558Z,27.08
2016-06-12T11:51:13.608Z,26.48
2016-06-12T11:52:13.658Z,25.99
2016-06-12T11:53:13.724Z,25.41
2016-06-12T11:54:13.773Z,25.18
2016-06-12T11:55:13.808Z,24.91
2016-06-12T11:56:13.874Z,25.07
2016-06-12T11:57:13.907Z,24.73
2016-06-12T11:58:13.972Z,23.99
2016-06-12T11:59:14.008Z,23.5
2016-06-12T12:00:14.058Z,23.21
2016-06-12T12:01:14.123Z,22.73
2016-06-12T12:02:14.157Z,22.88
2016-06-12T12:03:14.051Z,23.27
2016-06-12T12:04:14.085Z,23.17
2016-06-12T12:05:14.291Z,23.54
2016-06-12T12:06:14.341Z,23.78
2016-06-12T12:07:14.391Z,23.95
2016-06-12T12:08:14.722Z,24.03
2016-06-12T12:09:14.506Z,23.93
2016-06-12T12:10:14.526Z,24.01
2016-06-12T12:11:14.575Z,23.62
2016-06-12T12:12:14.609Z,23.51
2016-06-12T12:13:14.660Z,23.51
2016-06-12T12:14:14.710Z,23.76
2016-06-12T12:15:14.760Z,23.81
2016-06-12T12:16:14.811Z,24.01
2016-06-12T12:17:14.844Z,24.16
2016-06-12T12:18:14.894Z,24.11
2016-06-12T12:19:14.945Z,24.6
2016-06-12T12:20:14.995Z,25.17
2016-06-12T12:21:14.873Z,25.62
2016-06-12T12:22:15.063Z,25.69
2016-06-12T12:23:15.285Z,25.99
2016-06-12T12:24:15.162Z,25.87
2016-06-12T12:25:15.213Z,26.4
2016-06-12T12:26:15.263Z,27
2016-06-12T12:27:15.296Z,27.18
2016-06-12T12:28:15.362Z,27.15
2016-06-12T12:29:15.412Z,26.55
2016-06-12T12:30:15.446Z,26.02
2016-06-12T12:31:15.497Z,25.98
2016-06-12T12:32:15.531Z,25.36
2016-06-12T12:33:15.581Z,24.86
2016-06-12T12:34:15.631Z,24.73
2016-06-12T12:35:15.680Z,24.66
2016-06-12T12:36:15.730Z,24.29
2016-06-12T12:37:15.780Z,23.96
2016-06-12T12:38:16.689Z,24.02
2016-06-12T12:39:15.865Z,23.92
2016-06-12T12:40:15.931Z,23.48
2016-06-12T12:41:15.964Z,23.54
2016-06-12T12:42:16.015Z,23.43
2016-06-12T12:43:16.049Z,23.56
2016-06-12T12:44:16.115Z,23.68
2016-06-12T12:45:16.149Z,23.62
2016-06-12T12:46:16.199Z,23.71
2016-06-12T12:47:16.264Z,23.61
2016-06-12T12:48:16.283Z,23.41
2016-06-12T12:49:16.334Z,23.21
2016-06-12T12:50:16.368Z,23.24
2016-06-12T12:51:16.418Z,23.21
2016-06-12T12:52:16.468Z,23.13
2016-06-12T12:53:16.517Z,23.15
2016-06-12T12:54:16.552Z,23.18
2016-06-12T12:55:16.602Z,23.03
2016-06-12T12:56:16.651Z,22.88
2016-06-12T12:57:16.686Z,22.9